Newcastle, Canada
Current Conditions -  °F | °C
As of 7:00 AM on Thursday 23 Oct 2014 (Local Time) from CZBF Reporting Station
Overcast Overcast  
Wind Chill: 37°   Ceiling: 1000
Heat Index: 43°   Visibility: 15mi
Dew Point: 39°   Wind: 9mph
Humidity: 87%   Direction: 50°NE
Pressure: 30.32"   Gusts: NA
Location:  46.98°N, 65.57°W
Report Text: CZBF 231000Z 05008KT 15SM OVC010 06/04 A3032 RMK SC8 CIG RAG SLP269
Loading
Personal Weather Stations






























Interactive Weather Map
Tropical Storm Tracking
New forecast layout! Learn more

10-Day Weather Forecast

Advertisements
Track Severe Weather on mobile